sensor_id;sensor_type;location;lat;lon;timestamp;pressure;altitude;pressure_sealevel;temperature;humidity
16525;BME280;8375;33.594;-117.718;2023-04-20T00:00:33;100355.00;;;19.94;43.79
16525;BME280;8375;33.594;-117.718;2023-04-20T00:03:02;100354.28;;;19.77;42.96
16525;BME280;8375;33.594;-117.718;2023-04-20T00:05:31;100351.34;;;19.72;41.96
16525;BME280;8375;33.594;-117.718;2023-04-20T00:08:01;100349.47;;;19.81;42.62
16525;BME280;8375;33.594;-117.718;2023-04-20T00:10:30;100353.56;;;19.91;43.66
16525;BME280;8375;33.594;-117.718;2023-04-20T00:12:58;100351.34;;;19.72;44.38
16525;BME280;8375;33.594;-117.718;2023-04-20T00:15:27;100353.81;;;19.73;44.72
16525;BME280;8375;33.594;-117.718;2023-04-20T00:17:55;100345.50;;;19.61;43.88
16525;BME280;8375;33.594;-117.718;2023-04-20T00:20:24;100344.06;;;19.50;44.13
16525;BME280;8375;33.594;-117.718;2023-04-20T00:22:53;100344.41;;;19.47;44.15
16525;BME280;8375;33.594;-117.718;2023-04-20T00:25:23;100339.28;;;19.54;43.02
16525;BME280;8375;33.594;-117.718;2023-04-20T00:27:52;100346.28;;;19.39;41.93
16525;BME280;8375;33.594;-117.718;2023-04-20T00:30:21;100347.63;;;19.34;41.93
16525;BME280;8375;33.594;-117.718;2023-04-20T00:32:49;100346.75;;;19.42;42.04
16525;BME280;8375;33.594;-117.718;2023-04-20T00:35:18;100353.69;;;19.35;41.04
16525;BME280;8375;33.594;-117.718;2023-04-20T00:37:46;100349.28;;;19.27;42.28
16525;BME280;8375;33.594;-117.718;2023-04-20T00:40:15;100349.28;;;19.27;41.54
16525;BME280;8375;33.594;-117.718;2023-04-20T00:42:45;100347.00;;;19.24;40.90
16525;BME280;8375;33.594;-117.718;2023-04-20T00:45:14;100351.13;;;19.18;41.03
16525;BME280;8375;33.594;-117.718;2023-04-20T00:47:43;100349.38;;;19.11;41.19
16525;BME280;8375;33.594;-117.718;2023-04-20T00:50:11;100347.72;;;19.10;40.44
16525;BME280;8375;33.594;-117.718;2023-04-20T00:52:40;100341.03;;;18.82;40.62
16525;BME280;8375;33.594;-117.718;2023-04-20T00:55:10;100339.38;;;18.81;40.48
16525;BME280;8375;33.594;-117.718;2023-04-20T00:57:40;100342.19;;;18.88;41.52
16525;BME280;8375;33.594;-117.718;2023-04-20T01:00:11;100335.75;;;18.90;42.06
16525;BME280;8375;33.594;-117.718;2023-04-20T01:02:40;100333.81;;;18.76;39.98
16525;BME280;8375;33.594;-117.718;2023-04-20T01:05:09;100349.56;;;18.84;40.15
16525;BME280;8375;33.594;-117.718;2023-04-20T01:07:38;100344.84;;;18.80;40.03
16525;BME280;8375;33.594;-117.718;2023-04-20T01:10:08;100354.38;;;18.81;40.55
16525;BME280;8375;33.594;-117.718;2023-04-20T01:12:37;100359.94;;;18.86;42.54
16525;BME280;8375;33.594;-117.718;2023-04-20T01:15:07;100359.78;;;18.79;41.82
16525;BME280;8375;33.594;-117.718;2023-04-20T01:17:37;100356.16;;;18.80;44.08
16525;BME280;8375;33.594;-117.718;2023-04-20T01:20:07;100357.16;;;18.79;42.21
16525;BME280;8375;33.594;-117.718;2023-04-20T01:22:44;100351.75;;;18.72;42.40
16525;BME280;8375;33.594;-117.718;2023-04-20T01:25:13;100351.78;;;18.64;42.69
16525;BME280;8375;33.594;-117.718;2023-04-20T01:27:42;100356.38;;;18.62;44.98
16525;BME280;8375;33.594;-117.718;2023-04-20T01:30:12;100352.28;;;18.43;43.20
16525;BME280;8375;33.594;-117.718;2023-04-20T01:32:41;100358.84;;;18.30;42.86
16525;BME280;8375;33.594;-117.718;2023-04-20T01:35:10;100354.25;;;18.16;42.79
16525;BME280;8375;33.594;-117.718;2023-04-20T01:37:39;100358.97;;;17.96;43.92
16525;BME280;8375;33.594;-117.718;2023-04-20T01:40:11;100364.53;;;17.84;43.15
16525;BME280;8375;33.594;-117.718;2023-04-20T01:42:40;100358.63;;;17.82;44.62
16525;BME280;8375;33.594;-117.718;2023-04-20T01:45:10;100359.75;;;17.71;44.51
16525;BME280;8375;33.594;-117.718;2023-04-20T01:47:38;100358.09;;;17.62;45.90
16525;BME280;8375;33.594;-117.718;2023-04-20T01:50:08;100363.00;;;17.57;47.05
16525;BME280;8375;33.594;-117.718;2023-04-20T01:52:36;100365.09;;;17.45;45.79
16525;BME280;8375;33.594;-117.718;2023-04-20T01:55:06;100363.78;;;17.41;47.14
16525;BME280;8375;33.594;-117.718;2023-04-20T01:57:38;100367.53;;;17.30;48.31
16525;BME280;8375;33.594;-117.718;2023-04-20T02:00:08;100369.22;;;17.13;45.33
16525;BME280;8375;33.594;-117.718;2023-04-20T02:02:37;100368.25;;;17.14;48.16
16525;BME280;8375;33.594;-117.718;2023-04-20T02:05:08;100368.69;;;17.01;46.83
16525;BME280;8375;33.594;-117.718;2023-04-20T02:07:36;100371.16;;;16.76;44.62
16525;BME280;8375;33.594;-117.718;2023-04-20T02:10:06;100361.66;;;16.75;45.04
16525;BME280;8375;33.594;-117.718;2023-04-20T02:12:35;100369.16;;;16.70;47.11
16525;BME280;8375;33.594;-117.718;2023-04-20T02:15:06;100374.84;;;16.65;44.08
16525;BME280;8375;33.594;-117.718;2023-04-20T02:17:36;100376.44;;;16.58;43.93
16525;BME280;8375;33.594;-117.718;2023-04-20T02:20:07;100377.66;;;16.46;46.03
16525;BME280;8375;33.594;-117.718;2023-04-20T02:22:36;100375.50;;;16.41;46.46
16525;BME280;8375;33.594;-117.718;2023-04-20T02:25:05;100375.25;;;16.34;45.95
16525;BME280;8375;33.594;-117.718;2023-04-20T02:27:34;100379.94;;;16.22;45.71
16525;BME280;8375;33.594;-117.718;2023-04-20T02:30:06;100377.63;;;16.19;46.32
16525;BME280;8375;33.594;-117.718;2023-04-20T02:32:35;100379.84;;;16.14;47.64
16525;BME280;8375;33.594;-117.718;2023-04-20T02:35:04;100389.28;;;16.07;48.41
16525;BME280;8375;33.594;-117.718;2023-04-20T02:37:32;100385.75;;;15.98;44.88
16525;BME280;8375;33.594;-117.718;2023-04-20T02:40:01;100389.50;;;15.95;49.01
16525;BME280;8375;33.594;-117.718;2023-04-20T02:42:30;100385.53;;;15.91;47.06
16525;BME280;8375;33.594;-117.718;2023-04-20T02:44:59;100385.97;;;15.77;44.39
16525;BME280;8375;33.594;-117.718;2023-04-20T02:47:29;100395.41;;;15.69;45.05
16525;BME280;8375;33.594;-117.718;2023-04-20T02:49:58;100393.81;;;15.59;46.58
16525;BME280;8375;33.594;-117.718;2023-04-20T02:52:26;100388.41;;;15.60;50.92
16525;BME280;8375;33.594;-117.718;2023-04-20T02:54:55;100385.00;;;15.60;47.44
16525;BME280;8375;33.594;-117.718;2023-04-20T02:57:24;100398.50;;;15.55;46.47
16525;BME280;8375;33.594;-117.718;2023-04-20T02:59:53;100408.84;;;15.57;49.00
16525;BME280;8375;33.594;-117.718;2023-04-20T03:02:22;100402.97;;;15.45;45.73
16525;BME280;8375;33.594;-117.718;2023-04-20T03:04:52;100402.28;;;15.43;46.58
16525;BME280;8375;33.594;-117.718;2023-04-20T03:07:20;100408.53;;;15.32;47.57
16525;BME280;8375;33.594;-117.718;2023-04-20T03:09:49;100409.13;;;15.25;47.16
16525;BME280;8375;33.594;-117.718;2023-04-20T03:12:18;100407.59;;;15.23;47.68
16525;BME280;8375;33.594;-117.718;2023-04-20T03:14:47;100412.47;;;15.08;47.67
16525;BME280;8375;33.594;-117.718;2023-04-20T03:17:16;100414.81;;;15.11;51.30
16525;BME280;8375;33.594;-117.718;2023-04-20T03:19:45;100424.31;;;15.02;48.74
16525;BME280;8375;33.594;-117.718;2023-04-20T03:22:15;100425.97;;;15.03;50.35
16525;BME280;8375;33.594;-117.718;2023-04-20T03:24:44;100430.94;;;14.96;48.03
16525;BME280;8375;33.594;-117.718;2023-04-20T03:27:13;100426.97;;;14.92;52.42
16525;BME280;8375;33.594;-117.718;2023-04-20T03:29:42;100437.00;;;14.77;47.48
16525;BME280;8375;33.594;-117.718;2023-04-20T03:32:11;100436.44;;;14.84;52.54
16525;BME280;8375;33.594;-117.718;2023-04-20T03:34:40;100440.03;;;14.82;53.52
16525;BME280;8375;33.594;-117.718;2023-04-20T03:37:08;100444.56;;;14.61;48.34
16525;BME280;8375;33.594;-117.718;2023-04-20T03:39:39;100442.53;;;14.45;48.56
16525;BME280;8375;33.594;-117.718;2023-04-20T03:42:08;100458.31;;;14.33;49.15
16525;BME280;8375;33.594;-117.718;2023-04-20T03:44:36;100455.03;;;14.31;51.10
16525;BME280;8375;33.594;-117.718;2023-04-20T03:47:05;100459.78;;;14.16;49.71
16525;BME280;8375;33.594;-117.718;2023-04-20T03:49:35;100464.88;;;14.08;50.33
16525;BME280;8375;33.594;-117.718;2023-04-20T03:52:04;100473.91;;;14.04;51.67
16525;BME280;8375;33.594;-117.718;2023-04-20T03:54:33;100472.00;;;13.96;50.45
16525;BME280;8375;33.594;-117.718;2023-04-20T03:57:03;100481.16;;;13.90;50.78
16525;BME280;8375;33.594;-117.718;2023-04-20T03:59:32;100478.97;;;13.86;50.71
16525;BME280;8375;33.594;-117.718;2023-04-20T04:02:01;100488.84;;;13.82;50.54
16525;BME280;8375;33.594;-117.718;2023-04-20T04:04:31;100484.56;;;13.81;51.12
16525;BME280;8375;33.594;-117.718;2023-04-20T04:07:00;100482.50;;;13.75;51.56
16525;BME280;8375;33.594;-117.718;2023-04-20T04:09:28;100483.97;;;13.68;52.20
16525;BME280;8375;33.594;-117.718;2023-04-20T04:11:57;100485.88;;;13.66;52.18
16525;BME280;8375;33.594;-117.718;2023-04-20T04:14:28;100488.06;;;13.60;52.53
16525;BME280;8375;33.594;-117.718;2023-04-20T04:16:58;100493.44;;;13.59;52.79
16525;BME280;8375;33.594;-117.718;2023-04-20T04:19:26;100505.88;;;13.55;53.53
16525;BME280;8375;33.594;-117.718;2023-04-20T04:21:55;100499.97;;;13.53;53.83
16525;BME280;8375;33.594;-117.718;2023-04-20T04:24:24;100500.50;;;13.47;53.73
16525;BME280;8375;33.594;-117.718;2023-04-20T04:26:53;100509.91;;;13.38;54.25
16525;BME280;8375;33.594;-117.718;2023-04-20T04:29:24;100513.84;;;13.32;54.57
16525;BME280;8375;33.594;-117.718;2023-04-20T04:31:54;100513.97;;;13.31;55.27
16525;BME280;8375;33.594;-117.718;2023-04-20T04:34:23;100514.34;;;13.26;57.13
16525;BME280;8375;33.594;-117.718;2023-04-20T04:36:55;100520.75;;;13.22;56.76
16525;BME280;8375;33.594;-117.718;2023-04-20T04:39:24;100519.22;;;13.19;56.77
16525;BME280;8375;33.594;-117.718;2023-04-20T04:41:53;100523.03;;;13.15;57.92
16525;BME280;8375;33.594;-117.718;2023-04-20T04:44:23;100523.53;;;13.09;56.98
16525;BME280;8375;33.594;-117.718;2023-04-20T04:46:56;100526.91;;;13.00;56.20
16525;BME280;8375;33.594;-117.718;2023-04-20T04:49:24;100529.06;;;12.95;57.14
16525;BME280;8375;33.594;-117.718;2023-04-20T04:51:54;100527.81;;;12.89;57.14
16525;BME280;8375;33.594;-117.718;2023-04-20T04:54:23;100537.97;;;12.92;58.69
16525;BME280;8375;33.594;-117.718;2023-04-20T04:56:52;100536.81;;;12.85;57.83
16525;BME280;8375;33.594;-117.718;2023-04-20T04:59:21;100548.56;;;12.79;57.62
16525;BME280;8375;33.594;-117.718;2023-04-20T05:01:50;100546.81;;;12.68;57.65
16525;BME280;8375;33.594;-117.718;2023-04-20T05:04:20;100552.84;;;12.69;58.92
16525;BME280;8375;33.594;-117.718;2023-04-20T05:06:49;100542.66;;;12.66;58.36
16525;BME280;8375;33.594;-117.718;2023-04-20T05:09:17;100545.78;;;12.59;58.43
16525;BME280;8375;33.594;-117.718;2023-04-20T05:11:46;100549.00;;;12.52;58.59
16525;BME280;8375;33.594;-117.718;2023-04-20T05:14:15;100551.25;;;12.45;58.91
16525;BME280;8375;33.594;-117.718;2023-04-20T05:16:43;100556.34;;;12.46;60.38
16525;BME280;8375;33.594;-117.718;2023-04-20T05:19:41;100561.91;;;12.42;60.03
16525;BME280;8375;33.594;-117.718;2023-04-20T05:22:10;100561.56;;;12.35;60.16
16525;BME280;8375;33.594;-117.718;2023-04-20T05:24:38;100557.66;;;12.29;60.88
16525;BME280;8375;33.594;-117.718;2023-04-20T05:27:07;100563.13;;;12.26;60.29
16525;BME280;8375;33.594;-117.718;2023-04-20T05:29:37;100564.91;;;12.26;60.34
16525;BME280;8375;33.594;-117.718;2023-04-20T05:32:06;100556.72;;;12.19;61.13
16525;BME280;8375;33.594;-117.718;2023-04-20T05:34:36;100558.75;;;12.15;61.34
16525;BME280;8375;33.594;-117.718;2023-04-20T05:37:06;100561.59;;;12.12;62.34
16525;BME280;8375;33.594;-117.718;2023-04-20T05:39:35;100577.94;;;12.03;62.30
16525;BME280;8375;33.594;-117.718;2023-04-20T05:42:04;100573.03;;;11.98;62.81
16525;BME280;8375;33.594;-117.718;2023-04-20T05:44:32;100569.63;;;11.98;62.67
16525;BME280;8375;33.594;-117.718;2023-04-20T05:47:02;100572.31;;;11.96;63.87
16525;BME280;8375;33.594;-117.718;2023-04-20T05:49:31;100577.28;;;11.88;63.11
16525;BME280;8375;33.594;-117.718;2023-04-20T05:52:00;100575.16;;;11.93;64.47
16525;BME280;8375;33.594;-117.718;2023-04-20T05:54:30;100572.09;;;11.88;64.77
16525;BME280;8375;33.594;-117.718;2023-04-20T05:56:59;100573.41;;;11.82;63.99
16525;BME280;8375;33.594;-117.718;2023-04-20T05:59:28;100568.28;;;11.81;64.72
16525;BME280;8375;33.594;-117.718;2023-04-20T06:01:56;100569.59;;;11.75;64.75
16525;BME280;8375;33.594;-117.718;2023-04-20T06:04:25;100565.81;;;11.68;64.47
16525;BME280;8375;33.594;-117.718;2023-04-20T06:06:54;100566.75;;;11.67;65.28
16525;BME280;8375;33.594;-117.718;2023-04-20T06:09:23;100560.47;;;11.58;64.45
16525;BME280;8375;33.594;-117.718;2023-04-20T06:11:53;100562.47;;;11.54;64.49
16525;BME280;8375;33.594;-117.718;2023-04-20T06:14:22;100566.50;;;11.47;65.14
16525;BME280;8375;33.594;-117.718;2023-04-20T06:16:51;100574.16;;;11.49;66.88
16525;BME280;8375;33.594;-117.718;2023-04-20T06:19:20;100567.53;;;11.44;66.84
16525;BME280;8375;33.594;-117.718;2023-04-20T06:21:49;100565.06;;;11.43;67.27
16525;BME280;8375;33.594;-117.718;2023-04-20T06:24:17;100564.56;;;11.38;67.38
16525;BME280;8375;33.594;-117.718;2023-04-20T06:26:46;100570.94;;;11.34;67.50
16525;BME280;8375;33.594;-117.718;2023-04-20T06:29:16;100565.59;;;11.24;67.55
16525;BME280;8375;33.594;-117.718;2023-04-20T06:31:45;100572.66;;;11.22;68.47
16525;BME280;8375;33.594;-117.718;2023-04-20T06:34:14;100574.53;;;11.20;68.20
16525;BME280;8375;33.594;-117.718;2023-04-20T06:36:43;100577.38;;;11.17;69.09
16525;BME280;8375;33.594;-117.718;2023-04-20T06:39:12;100570.97;;;11.09;68.68
16525;BME280;8375;33.594;-117.718;2023-04-20T06:41:40;100566.56;;;10.98;69.06
16525;BME280;8375;33.594;-117.718;2023-04-20T06:44:09;100568.53;;;10.95;68.96
16525;BME280;8375;33.594;-117.718;2023-04-20T06:46:39;100566.56;;;10.98;70.68
16525;BME280;8375;33.594;-117.718;2023-04-20T06:49:08;100571.28;;;10.93;70.43
16525;BME280;8375;33.594;-117.718;2023-04-20T06:51:37;100573.03;;;10.93;70.93
16525;BME280;8375;33.594;-117.718;2023-04-20T06:54:06;100573.97;;;10.92;71.92
16525;BME280;8375;33.594;-117.718;2023-04-20T06:56:35;100573.47;;;10.86;71.63
16525;BME280;8375;33.594;-117.718;2023-04-20T06:59:04;100572.66;;;10.86;72.94
16525;BME280;8375;33.594;-117.718;2023-04-20T07:01:32;100573.19;;;10.78;72.47
16525;BME280;8375;33.594;-117.718;2023-04-20T07:04:03;100566.13;;;10.80;73.64
16525;BME280;8375;33.594;-117.718;2023-04-20T07:06:31;100567.50;;;10.73;73.53
16525;BME280;8375;33.594;-117.718;2023-04-20T07:09:00;100573.84;;;10.69;72.85
16525;BME280;8375;33.594;-117.718;2023-04-20T07:11:30;100575.72;;;10.67;73.09
16525;BME280;8375;33.594;-117.718;2023-04-20T07:13:59;100570.88;;;10.62;73.57
16525;BME280;8375;33.594;-117.718;2023-04-20T07:16:27;100571.59;;;10.64;74.01
16525;BME280;8375;33.594;-117.718;2023-04-20T07:18:56;100569.94;;;10.63;74.56
16525;BME280;8375;33.594;-117.718;2023-04-20T07:21:26;100571.25;;;10.69;76.50
16525;BME280;8375;33.594;-117.718;2023-04-20T07:23:56;100570.44;;;10.68;76.09
16525;BME280;8375;33.594;-117.718;2023-04-20T07:26:25;100574.78;;;10.68;75.11
16525;BME280;8375;33.594;-117.718;2023-04-20T07:28:54;100575.22;;;10.62;74.09
16525;BME280;8375;33.594;-117.718;2023-04-20T07:31:23;100577.72;;;10.63;75.71
16525;BME280;8375;33.594;-117.718;2023-04-20T07:33:51;100579.69;;;10.60;74.78
16525;BME280;8375;33.594;-117.718;2023-04-20T07:36:20;100586.47;;;10.62;75.83
16525;BME280;8375;33.594;-117.718;2023-04-20T07:38:50;100592.78;;;10.58;74.83
16525;BME280;8375;33.594;-117.718;2023-04-20T07:41:19;100590.38;;;10.55;75.09
16525;BME280;8375;33.594;-117.718;2023-04-20T07:43:49;100590.50;;;10.53;74.99
16525;BME280;8375;33.594;-117.718;2023-04-20T07:46:21;100591.66;;;10.49;74.54
16525;BME280;8375;33.594;-117.718;2023-04-20T07:48:49;100595.50;;;10.44;74.57
16525;BME280;8375;33.594;-117.718;2023-04-20T07:51:18;100595.72;;;10.40;75.76
16525;BME280;8375;33.594;-117.718;2023-04-20T07:53:47;100599.56;;;10.35;75.28
16525;BME280;8375;33.594;-117.718;2023-04-20T07:56:17;100605.69;;;10.34;76.01
16525;BME280;8375;33.594;-117.718;2023-04-20T07:58:46;100596.34;;;10.31;75.19
16525;BME280;8375;33.594;-117.718;2023-04-20T08:01:15;100594.97;;;10.38;78.82
16525;BME280;8375;33.594;-117.718;2023-04-20T08:03:43;100597.56;;;10.38;78.18
16525;BME280;8375;33.594;-117.718;2023-04-20T08:06:12;100592.06;;;10.30;76.51
16525;BME280;8375;33.594;-117.718;2023-04-20T08:08:41;100594.16;;;10.25;76.75
16525;BME280;8375;33.594;-117.718;2023-04-20T08:11:09;100593.66;;;10.20;76.90
16525;BME280;8375;33.594;-117.718;2023-04-20T08:13:40;100595.84;;;10.13;77.42
16525;BME280;8375;33.594;-117.718;2023-04-20T08:16:09;100586.50;;;10.10;77.82
16525;BME280;8375;33.594;-117.718;2023-04-20T08:18:38;100591.28;;;10.17;79.99
16525;BME280;8375;33.594;-117.718;2023-04-20T08:21:06;100590.66;;;10.13;78.54
16525;BME280;8375;33.594;-117.718;2023-04-20T08:23:35;100596.38;;;10.05;78.59
16525;BME280;8375;33.594;-117.718;2023-04-20T08:26:03;100594.91;;;10.01;78.38
16525;BME280;8375;33.594;-117.718;2023-04-20T08:28:32;100589.22;;;9.96;78.51
16525;BME280;8375;33.594;-117.718;2023-04-20T08:31:03;100586.75;;;9.94;78.34
16525;BME280;8375;33.594;-117.718;2023-04-20T08:33:31;100589.84;;;9.87;78.39
16525;BME280;8375;33.594;-117.718;2023-04-20T08:36:00;100590.25;;;9.80;78.83
16525;BME280;8375;33.594;-117.718;2023-04-20T08:38:29;100593.16;;;9.76;79.03
16525;BME280;8375;33.594;-117.718;2023-04-20T08:40:58;100602.69;;;9.75;79.63
16525;BME280;8375;33.594;-117.718;2023-04-20T08:43:27;100597.31;;;9.78;80.37
16525;BME280;8375;33.594;-117.718;2023-04-20T08:45:58;100594.81;;;9.77;81.29
16525;BME280;8375;33.594;-117.718;2023-04-20T08:48:33;100598.34;;;9.76;81.83
16525;BME280;8375;33.594;-117.718;2023-04-20T08:51:02;100590.34;;;9.66;80.82
16525;BME280;8375;33.594;-117.718;2023-04-20T08:53:31;100585.47;;;9.61;80.48
16525;BME280;8375;33.594;-117.718;2023-04-20T08:56:00;100578.66;;;9.60;80.88
16525;BME280;8375;33.594;-117.718;2023-04-20T08:58:30;100578.72;;;9.59;81.98
16525;BME280;8375;33.594;-117.718;2023-04-20T09:00:59;100578.72;;;9.59;81.90
16525;BME280;8375;33.594;-117.718;2023-04-20T09:03:34;100576.13;;;9.59;83.66
16525;BME280;8375;33.594;-117.718;2023-04-20T09:06:03;100560.09;;;9.66;86.22
16525;BME280;8375;33.594;-117.718;2023-04-20T09:08:36;100563.41;;;9.68;85.25
16525;BME280;8375;33.594;-117.718;2023-04-20T09:11:05;100557.16;;;9.71;85.97
16525;BME280;8375;33.594;-117.718;2023-04-20T09:13:34;100556.75;;;9.77;85.87
16525;BME280;8375;33.594;-117.718;2023-04-20T09:16:09;100545.56;;;9.77;85.48
16525;BME280;8375;33.594;-117.718;2023-04-20T09:18:49;100546.41;;;9.64;83.42
16525;BME280;8375;33.594;-117.718;2023-04-20T09:21:18;100546.91;;;9.57;83.48
16525;BME280;8375;33.594;-117.718;2023-04-20T09:23:58;100541.31;;;9.50;83.49
16525;BME280;8375;33.594;-117.718;2023-04-20T09:26:31;100542.53;;;9.44;83.39
16525;BME280;8375;33.594;-117.718;2023-04-20T09:29:01;100538.59;;;9.38;82.71
16525;BME280;8375;33.594;-117.718;2023-04-20T09:31:30;100539.75;;;9.34;82.93
16525;BME280;8375;33.594;-117.718;2023-04-20T09:34:02;100542.75;;;9.28;83.57
16525;BME280;8375;33.594;-117.718;2023-04-20T09:36:38;100538.56;;;9.25;83.52
16525;BME280;8375;33.594;-117.718;2023-04-20T09:39:09;100537.53;;;9.15;83.63
16525;BME280;8375;33.594;-117.718;2023-04-20T09:41:39;100532.75;;;9.09;83.99
16525;BME280;8375;33.594;-117.718;2023-04-20T09:44:09;100521.44;;;9.10;86.02
16525;BME280;8375;33.594;-117.718;2023-04-20T09:46:39;100526.09;;;9.05;85.45
16525;BME280;8375;33.594;-117.718;2023-04-20T09:49:11;100516.13;;;8.99;84.84
16525;BME280;8375;33.594;-117.718;2023-04-20T09:51:41;100524.97;;;8.96;84.96
16525;BME280;8375;33.594;-117.718;2023-04-20T09:54:12;100525.78;;;8.97;85.29
16525;BME280;8375;33.594;-117.718;2023-04-20T09:56:41;100524.63;;;8.88;84.93
16525;BME280;8375;33.594;-117.718;2023-04-20T09:59:10;100514.47;;;8.85;85.32
16525;BME280;8375;33.594;-117.718;2023-04-20T10:01:39;100511.56;;;8.89;86.96
16525;BME280;8375;33.594;-117.718;2023-04-20T10:04:10;100519.88;;;8.94;87.45
16525;BME280;8375;33.594;-117.718;2023-04-20T10:06:50;100509.50;;;8.94;87.57
16525;BME280;8375;33.594;-117.718;2023-04-20T10:09:21;100503.59;;;8.92;87.38
16525;BME280;8375;33.594;-117.718;2023-04-20T10:11:51;100502.88;;;8.90;87.40
16525;BME280;8375;33.594;-117.718;2023-04-20T10:14:21;100509.31;;;8.98;89.75
16525;BME280;8375;33.594;-117.718;2023-04-20T10:16:58;100500.31;;;9.03;90.73
16525;BME280;8375;33.594;-117.718;2023-04-20T10:19:38;100510.16;;;8.98;89.45
16525;BME280;8375;33.594;-117.718;2023-04-20T10:22:07;100511.47;;;8.91;88.40
16525;BME280;8375;33.594;-117.718;2023-04-20T10:24:36;100508.50;;;8.97;90.35
16525;BME280;8375;33.594;-117.718;2023-04-20T10:27:16;100511.81;;;8.99;90.55
16525;BME280;8375;33.594;-117.718;2023-04-20T10:29:44;100510.16;;;9.11;93.51
16525;BME280;8375;33.594;-117.718;2023-04-20T10:32:21;100521.78;;;9.05;91.76
16525;BME280;8375;33.594;-117.718;2023-04-20T10:35:02;100526.69;;;8.95;90.37
16525;BME280;8375;33.594;-117.718;2023-04-20T10:37:31;100530.94;;;8.84;89.38
16525;BME280;8375;33.594;-117.718;2023-04-20T10:40:01;100535.44;;;8.67;88.12
16525;BME280;8375;33.594;-117.718;2023-04-20T10:42:41;100534.63;;;8.52;88.30
16525;BME280;8375;33.594;-117.718;2023-04-20T10:45:10;100538.13;;;8.51;89.39
16525;BME280;8375;33.594;-117.718;2023-04-20T10:47:38;100534.63;;;8.52;90.79
16525;BME280;8375;33.594;-117.718;2023-04-20T10:50:11;100537.94;;;8.54;91.43
16525;BME280;8375;33.594;-117.718;2023-04-20T10:52:41;100517.59;;;8.48;90.46
16525;BME280;8375;33.594;-117.718;2023-04-20T10:55:19;100518.44;;;8.48;91.78
16525;BME280;8375;33.594;-117.718;2023-04-20T10:57:48;100527.78;;;8.51;92.02
16525;BME280;8375;33.594;-117.718;2023-04-20T11:00:17;100532.78;;;8.40;90.48
16525;BME280;8375;33.594;-117.718;2023-04-20T11:02:47;100524.47;;;8.34;90.33
16525;BME280;8375;33.594;-117.718;2023-04-20T11:05:19;100532.34;;;8.33;90.84
16525;BME280;8375;33.594;-117.718;2023-04-20T11:07:51;100534.81;;;8.49;93.55
16525;BME280;8375;33.594;-117.718;2023-04-20T11:10:21;100537.00;;;8.41;92.34
16525;BME280;8375;33.594;-117.718;2023-04-20T11:12:50;100542.31;;;8.39;92.14
16525;BME280;8375;33.594;-117.718;2023-04-20T11:15:19;100545.28;;;8.33;92.54
16525;BME280;8375;33.594;-117.718;2023-04-20T11:18:05;100544.63;;;8.29;91.67
16525;BME280;8375;33.594;-117.718;2023-04-20T11:20:36;100555.53;;;8.20;91.40
16525;BME280;8375;33.594;-117.718;2023-04-20T11:23:05;100553.59;;;8.09;92.23
16525;BME280;8375;33.594;-117.718;2023-04-20T11:25:34;100552.56;;;8.12;92.30
16525;BME280;8375;33.594;-117.718;2023-04-20T11:28:06;100549.34;;;8.22;94.33
16525;BME280;8375;33.594;-117.718;2023-04-20T11:30:38;100551.63;;;8.27;95.23
16525;BME280;8375;33.594;-117.718;2023-04-20T11:33:08;100552.38;;;8.29;95.63
16525;BME280;8375;33.594;-117.718;2023-04-20T11:35:39;100560.44;;;8.25;94.54
16525;BME280;8375;33.594;-117.718;2023-04-20T11:38:08;100554.97;;;8.15;93.59
16525;BME280;8375;33.594;-117.718;2023-04-20T11:40:37;100563.41;;;8.18;95.00
16525;BME280;8375;33.594;-117.718;2023-04-20T11:43:05;100565.31;;;8.15;94.64
16525;BME280;8375;33.594;-117.718;2023-04-20T11:45:34;100561.81;;;8.16;95.01
16525;BME280;8375;33.594;-117.718;2023-04-20T11:48:04;100565.50;;;7.97;93.33
16525;BME280;8375;33.594;-117.718;2023-04-20T11:50:33;100562.91;;;7.83;92.90
16525;BME280;8375;33.594;-117.718;2023-04-20T11:53:04;100564.38;;;7.72;93.24
16525;BME280;8375;33.594;-117.718;2023-04-20T11:55:35;100561.63;;;7.75;93.09
16525;BME280;8375;33.594;-117.718;2023-04-20T11:58:03;100559.97;;;7.74;93.10
16525;BME280;8375;33.594;-117.718;2023-04-20T12:00:32;100561.69;;;7.74;93.42
16525;BME280;8375;33.594;-117.718;2023-04-20T12:03:01;100562.25;;;7.79;93.79
16525;BME280;8375;33.594;-117.718;2023-04-20T12:05:30;100565.69;;;7.80;94.24
16525;BME280;8375;33.594;-117.718;2023-04-20T12:07:58;100558.13;;;7.76;93.97
16525;BME280;8375;33.594;-117.718;2023-04-20T12:10:29;100561.06;;;7.70;94.07
16525;BME280;8375;33.594;-117.718;2023-04-20T12:12:57;100564.75;;;7.81;96.32
16525;BME280;8375;33.594;-117.718;2023-04-20T12:15:27;100575.56;;;7.87;97.35
16525;BME280;8375;33.594;-117.718;2023-04-20T12:17:55;100573.06;;;7.86;96.68
16525;BME280;8375;33.594;-117.718;2023-04-20T12:20:24;100571.97;;;7.90;97.69
16525;BME280;8375;33.594;-117.718;2023-04-20T12:22:52;100578.63;;;7.94;98.06
16525;BME280;8375;33.594;-117.718;2023-04-20T12:25:21;100575.84;;;7.83;97.55
16525;BME280;8375;33.594;-117.718;2023-04-20T12:27:51;100573.88;;;7.86;98.54
16525;BME280;8375;33.594;-117.718;2023-04-20T12:30:20;100570.19;;;7.90;99.41
16525;BME280;8375;33.594;-117.718;2023-04-20T12:32:49;100569.03;;;7.96;99.89
16525;BME280;8375;33.594;-117.718;2023-04-20T12:35:18;100555.34;;;7.94;99.18
16525;BME280;8375;33.594;-117.718;2023-04-20T12:37:47;100560.06;;;8.02;99.92
16525;BME280;8375;33.594;-117.718;2023-04-20T12:40:15;100562.38;;;8.06;99.92
16525;BME280;8375;33.594;-117.718;2023-04-20T12:42:44;100561.00;;;8.01;99.08
16525;BME280;8375;33.594;-117.718;2023-04-20T12:45:15;100564.41;;;8.01;99.20